FLD weather

Fond du Lac County Airport
Fond du Lac, Wisconsin, United States

Public forecast

Using degrees Fahrenheit for public forecast. Weather courtesy of forecast.io.

METAR (pilot weather report)

Retrieved 2019/07/20 15:53 UTC (2 hours ago):

KFLD 201553Z AUTO 21011G18KT 10SM SCT016 31/26 A2977 RMK AO2 SLP072 T03060256 TSNO

TAF (pilot weather forecast)

Closest forecast is Wittman Regional Airport, 13.1 nm (24.3 km) NNW. Retrieved 2019/07/20 12:40 UTC (5 hours ago):

TAF KOSH 201138Z 2012/2112 19010G18KT P6SM BKN035 FM201800 01005KT P6SM SHRA BKN045 TEMPO 2018/2021 4SM TSRA BKN025CB FM210600 34002KT P6SM -SHRA BKN200